createdAt,value
2018-01-30T00:00:31.203Z,73.40
2018-01-30T00:03:03.211Z,72.70
2018-01-30T00:05:52.068Z,71.90
2018-01-30T00:08:27.400Z,71.40
2018-01-30T00:11:25.076Z,72.40
2018-01-30T00:14:01.980Z,72.10
2018-01-30T00:16:37.455Z,72.00
2018-01-30T00:19:09.624Z,72.40
2018-01-30T00:22:08.657Z,73.30
2018-01-30T00:24:41.791Z,73.30
2018-01-30T00:27:13.747Z,73.60
2018-01-30T00:29:48.332Z,74.10
2018-01-30T00:32:19.649Z,74.30
2018-01-30T00:34:52.610Z,74.20
2018-01-30T00:37:25.769Z,74.10
2018-01-30T00:40:22.778Z,74.10
2018-01-30T00:46:04.586Z,74.00
2018-01-30T00:48:48.244Z,74.10
2018-01-30T00:51:44.888Z,73.80
2018-01-30T00:54:17.128Z,73.90
2018-01-30T00:56:51.222Z,74.10
2018-01-30T01:00:03.960Z,74.30
2018-01-30T01:05:23.705Z,73.90
2018-01-30T01:07:56.572Z,73.60
2018-01-30T01:10:29.811Z,73.30
2018-01-30T01:13:02.848Z,73.30
2018-01-30T01:18:22.638Z,72.80
2018-01-30T01:20:57.012Z,72.80
2018-01-30T01:23:28.781Z,72.80
2018-01-30T01:26:25.332Z,72.30
2018-01-30T01:29:14.321Z,72.60
2018-01-30T01:31:47.202Z,72.60
2018-01-30T01:34:19.939Z,72.90
2018-01-30T01:37:17.002Z,73.00
2018-01-30T01:40:06.597Z,73.00
2018-01-30T01:42:39.829Z,72.90
2018-01-30T01:45:13.688Z,72.90
2018-01-30T01:51:19.161Z,73.10
2018-01-30T01:54:15.600Z,73.00
2018-01-30T02:02:42.429Z,73.30
2018-01-30T02:05:14.489Z,73.00
2018-01-30T02:11:33.902Z,72.60
2018-01-30T02:14:10.819Z,72.70
2018-01-30T02:16:45.841Z,72.30
2018-01-30T02:19:17.701Z,72.20
2018-01-30T02:22:14.640Z,72.70
2018-01-30T02:25:03.460Z,72.50
2018-01-30T02:27:47.193Z,73.00
2018-01-30T02:33:28.605Z,72.90
2018-01-30T02:36:01.697Z,72.80
2018-01-30T02:38:57.986Z,72.90
2018-01-30T02:41:30.308Z,72.80
2018-01-30T02:50:44.929Z,72.90
2018-01-30T02:53:18.398Z,73.00
2018-01-30T02:58:35.729Z,72.90
2018-01-30T03:01:08.383Z,73.00
2018-01-30T03:03:40.299Z,73.00
2018-01-30T03:06:25.320Z,72.70
2018-01-30T03:08:58.768Z,73.00
2018-01-30T03:11:31.556Z,72.70
2018-01-30T03:14:16.032Z,73.70
2018-01-30T03:16:48.464Z,73.00
2018-01-30T03:19:20.857Z,72.80
2018-01-30T03:24:53.980Z,73.00
2018-01-30T03:27:26.583Z,72.90
2018-01-30T03:30:01.788Z,73.00
2018-01-30T03:32:34.242Z,73.00
2018-01-30T03:35:06.373Z,73.00
2018-01-30T03:37:37.900Z,73.00
2018-01-30T03:40:09.807Z,72.90
2018-01-30T03:43:18.920Z,72.90
2018-01-30T03:45:51.800Z,72.70
2018-01-30T03:48:26.892Z,73.00
2018-01-30T03:51:10.345Z,72.90
2018-01-30T03:54:08.097Z,72.70
2018-01-30T03:56:39.928Z,73.00
2018-01-30T03:59:12.101Z,72.90
2018-01-30T04:01:43.611Z,73.00
2018-01-30T04:04:27.319Z,72.90
2018-01-30T04:06:59.445Z,73.30
2018-01-30T04:09:32.129Z,73.20
2018-01-30T04:12:04.396Z,73.10
2018-01-30T04:15:00.515Z,73.10
2018-01-30T04:17:45.971Z,73.60
2018-01-30T04:20:31.210Z,73.80
2018-01-30T04:23:04.392Z,73.70
2018-01-30T04:25:40.984Z,73.90
2018-01-30T04:28:14.814Z,73.90
2018-01-30T04:30:48.366Z,73.70
2018-01-30T04:33:20.532Z,74.30
2018-01-30T04:36:19.689Z,74.20
2018-01-30T04:38:51.881Z,74.30
2018-01-30T04:41:36.271Z,74.40
2018-01-30T04:44:08.790Z,74.30
2018-01-30T04:46:42.353Z,74.30
2018-01-30T04:49:15.353Z,74.20
2018-01-30T04:51:47.627Z,74.30
2018-01-30T04:54:22.207Z,73.90
2018-01-30T04:56:54.038Z,74.10
2018-01-30T04:59:53.722Z,74.20
2018-01-30T05:05:47.359Z,75.20
2018-01-30T05:08:21.286Z,74.40
2018-01-30T05:10:54.202Z,74.40
2018-01-30T05:13:38.764Z,74.10
2018-01-30T05:16:14.082Z,74.20
2018-01-30T05:18:50.339Z,74.20
2018-01-30T05:21:22.876Z,73.80
2018-01-30T05:23:55.515Z,73.90
2018-01-30T05:27:05.914Z,73.80
2018-01-30T05:30:04.444Z,73.90
2018-01-30T05:32:49.444Z,73.90
2018-01-30T05:35:33.629Z,73.50
2018-01-30T05:41:13.746Z,73.60
2018-01-30T05:43:46.594Z,74.20
2018-01-30T05:46:31.571Z,74.50
2018-01-30T05:49:17.161Z,74.30
2018-01-30T05:51:53.062Z,73.80
2018-01-30T05:54:26.408Z,73.40
2018-01-30T05:56:58.943Z,73.50
2018-01-30T05:59:31.644Z,73.50
2018-01-30T06:02:17.247Z,73.50
2018-01-30T06:04:49.684Z,73.10
2018-01-30T06:07:34.545Z,73.10
2018-01-30T06:10:08.012Z,73.00
2018-01-30T06:15:27.592Z,72.70
2018-01-30T06:18:16.720Z,72.80
2018-01-30T06:20:49.561Z,73.90
2018-01-30T06:23:23.702Z,72.50
2018-01-30T06:26:12.424Z,72.60
2018-01-30T06:28:45.784Z,72.50
2018-01-30T06:31:29.063Z,72.50
2018-01-30T06:34:16.353Z,72.30
2018-01-30T06:39:35.235Z,72.70
2018-01-30T06:42:34.222Z,72.50
2018-01-30T06:45:08.579Z,72.50
2018-01-30T06:47:41.778Z,72.10
2018-01-30T06:50:15.594Z,72.40
2018-01-30T06:52:48.421Z,72.10
2018-01-30T06:55:36.354Z,72.40
2018-01-30T06:58:16.214Z,71.50
2018-01-30T07:00:51.376Z,71.50
2018-01-30T07:03:27.146Z,71.80
2018-01-30T07:06:01.260Z,71.40
2018-01-30T07:08:36.591Z,71.40
2018-01-30T07:11:10.144Z,71.50
2018-01-30T07:13:43.475Z,71.70
2018-01-30T07:16:17.616Z,71.50
2018-01-30T07:18:51.450Z,71.70
2018-01-30T07:21:26.695Z,71.70
2018-01-30T07:23:59.680Z,71.60
2018-01-30T07:26:33.773Z,71.70
2018-01-30T07:29:07.122Z,72.10
2018-01-30T07:31:39.734Z,72.10
2018-01-30T07:34:15.335Z,72.20
2018-01-30T07:36:48.855Z,71.80
2018-01-30T07:42:32.884Z,71.50
2018-01-30T07:45:06.178Z,71.50
2018-01-30T07:47:37.592Z,71.50
2018-01-30T07:50:46.598Z,71.40
2018-01-30T07:53:45.054Z,71.20
2018-01-30T07:56:18.539Z,71.20
2018-01-30T07:58:53.881Z,71.20
2018-01-30T08:01:26.476Z,71.00
2018-01-30T08:04:00.420Z,71.00
2018-01-30T08:06:34.641Z,71.20
2018-01-30T08:09:08.547Z,71.20
2018-01-30T08:11:40.827Z,71.00
2018-01-30T08:14:15.626Z,71.20
2018-01-30T08:16:47.964Z,71.30
2018-01-30T08:19:21.684Z,71.20
2018-01-30T08:22:07.230Z,71.40
2018-01-30T08:24:39.502Z,71.50
2018-01-30T08:27:13.178Z,71.70
2018-01-30T08:29:48.307Z,71.80
2018-01-30T08:32:21.586Z,71.80
2018-01-30T08:35:19.887Z,72.50
2018-01-30T08:37:59.056Z,71.80
2018-01-30T08:40:34.994Z,72.00
2018-01-30T08:43:10.164Z,72.30
2018-01-30T08:45:43.603Z,72.40
2018-01-30T08:48:17.800Z,72.50
2018-01-30T08:51:02.756Z,72.50
2018-01-30T08:53:37.770Z,72.70
2018-01-30T08:56:10.457Z,73.30
2018-01-30T08:58:44.443Z,73.20
2018-01-30T09:01:17.975Z,72.80
2018-01-30T09:03:51.826Z,72.70
2018-01-30T09:06:26.912Z,72.80
2018-01-30T09:09:00.327Z,72.90
2018-01-30T09:11:34.449Z,73.10
2018-01-30T09:14:08.419Z,73.30
2018-01-30T09:16:41.518Z,73.30
2018-01-30T09:22:09.735Z,73.40
2018-01-30T09:24:43.356Z,73.50
2018-01-30T09:27:16.744Z,73.30
2018-01-30T09:30:05.258Z,73.40
2018-01-30T09:33:00.979Z,73.40
2018-01-30T09:35:35.457Z,72.50
2018-01-30T09:38:09.701Z,71.70
2018-01-30T09:40:44.021Z,71.20
2018-01-30T09:43:17.712Z,70.70
2018-01-30T09:45:52.339Z,70.70
2018-01-30T09:48:26.344Z,70.50
2018-01-30T09:50:58.320Z,71.20
2018-01-30T09:53:32.397Z,70.60
2018-01-30T09:56:04.298Z,70.60
2018-01-30T09:58:39.556Z,70.80
2018-01-30T10:01:12.632Z,70.70
2018-01-30T10:03:49.665Z,70.70
2018-01-30T10:06:31.105Z,70.40
2018-01-30T10:09:06.605Z,70.40
2018-01-30T10:11:40.565Z,69.70
2018-01-30T10:14:54.018Z,69.70
2018-01-30T10:17:50.621Z,70.10
2018-01-30T10:20:28.644Z,69.90
2018-01-30T10:23:06.233Z,69.70
2018-01-30T10:25:39.200Z,69.30
2018-01-30T10:28:14.602Z,68.50
2018-01-30T10:30:47.205Z,68.80
2018-01-30T10:33:33.955Z,68.50
2018-01-30T10:36:06.022Z,68.50
2018-01-30T10:38:50.552Z,68.00
2018-01-30T10:50:32.699Z,62.50
2018-01-30T10:53:05.477Z,62.40
2018-01-30T10:55:46.650Z,62.00
2018-01-30T10:58:21.502Z,62.00
2018-01-30T11:00:55.935Z,62.00
2018-01-30T11:06:16.253Z,60.60
2018-01-30T11:08:49.410Z,60.30
2018-01-30T11:11:43.432Z,60.40
2018-01-30T11:17:17.263Z,59.90
2018-01-30T11:20:03.421Z,59.90
2018-01-30T11:23:00.351Z,57.70
2018-01-30T11:28:22.522Z,57.80
2018-01-30T11:31:00.062Z,57.50
2018-01-30T11:33:38.706Z,57.20
2018-01-30T11:36:36.645Z,56.80
2018-01-30T11:39:34.600Z,56.30
2018-01-30T11:44:52.941Z,54.70
2018-01-30T11:47:27.178Z,55.40
2018-01-30T11:50:02.796Z,54.40
2018-01-30T11:52:59.536Z,54.40
2018-01-30T11:55:34.316Z,54.20
2018-01-30T11:58:08.569Z,54.20
2018-01-30T12:00:44.097Z,54.60
2018-01-30T12:03:32.230Z,54.60
2018-01-30T12:06:08.739Z,55.20
2018-01-30T12:08:41.645Z,54.50
2018-01-30T12:11:17.377Z,53.60
2018-01-30T12:13:50.722Z,53.60
2018-01-30T12:16:24.429Z,54.00
2018-01-30T12:18:58.233Z,53.20
2018-01-30T12:21:32.854Z,53.70
2018-01-30T12:24:06.037Z,52.60
2018-01-30T12:26:39.658Z,52.10
2018-01-30T12:29:12.805Z,51.80
2018-01-30T12:31:47.224Z,51.60
2018-01-30T12:34:20.788Z,52.40
2018-01-30T12:36:52.193Z,52.40
2018-01-30T12:39:28.449Z,52.60
2018-01-30T12:42:02.854Z,52.00
2018-01-30T12:44:36.029Z,52.00
2018-01-30T12:47:09.498Z,51.20
2018-01-30T12:49:47.489Z,50.80
2018-01-30T12:52:35.120Z,50.40
2018-01-30T12:55:11.876Z,50.80
2018-01-30T12:57:45.930Z,50.30
2018-01-30T13:00:25.216Z,50.40
2018-01-30T13:03:09.158Z,50.90
2018-01-30T13:05:44.578Z,50.90
2018-01-30T13:08:16.759Z,50.30
2018-01-30T13:10:55.925Z,50.40
2018-01-30T13:13:30.151Z,50.60
2018-01-30T13:16:04.405Z,50.30
2018-01-30T13:18:38.615Z,49.80
2018-01-30T13:21:15.500Z,49.60
2018-01-30T13:23:49.288Z,50.50
2018-01-30T13:26:23.652Z,50.50
2018-01-30T13:29:09.855Z,50.80
2018-01-30T13:31:46.514Z,50.30
2018-01-30T13:34:21.399Z,50.20
2018-01-30T13:36:55.135Z,50.30
2018-01-30T13:39:31.242Z,50.50
2018-01-30T13:42:02.936Z,50.30
2018-01-30T13:44:36.322Z,49.40
